Time;durP1;ratioP1;P1;durP2;ratioP2;P2;SDS_P1;SDS_P2;PMS_P1;PMS_P2;Temp;Humidity;BMP_temperature;BMP_pressure;BME280_temperature;BME280_humidity;BME280_pressure;Samples;Min_cycle;Max_cycle;Signal;HPM_P1;HPM_P2
2023/05/26 00:00:27;;;;;;;37.03;23.60;;;;;;;14.28;91.78;100587.96;1443946;89;21473;-79
2023/05/26 00:02:53;;;;;;;31.00;22.07;;;;;;;14.28;92.30;100591.45;1460407;89;22166;-79
2023/05/26 00:05:20;;;;;;;38.03;23.93;;;;;;;14.30;91.50;100593.45;1464368;89;21490;-78
2023/05/26 00:07:47;;;;;;;34.90;23.73;;;;;;;14.29;92.31;100590.44;1453776;89;21360;-78
2023/05/26 00:10:14;;;;;;;44.40;24.97;;;;;;;14.27;92.45;100591.60;1455843;89;21375;-79
2023/05/26 00:12:41;;;;;;;38.30;23.40;;;;;;;14.25;93.03;100591.78;1451761;89;21603;-78
2023/05/26 00:15:08;;;;;;;33.33;23.10;;;;;;;14.20;93.25;100588.78;1468840;89;21330;-79
2023/05/26 00:17:36;;;;;;;31.53;23.70;;;;;;;14.22;92.68;100591.62;1458914;89;21389;-79
2023/05/26 00:20:04;;;;;;;38.50;26.30;;;;;;;14.19;93.58;100583.14;1456745;89;22298;-78
2023/05/26 00:22:31;;;;;;;35.03;23.23;;;;;;;14.18;93.42;100581.45;1464166;89;22259;-79
2023/05/26 00:24:57;;;;;;;32.40;23.77;;;;;;;14.18;94.50;100590.77;1464022;89;22385;-77
2023/05/26 00:27:23;;;;;;;38.87;24.90;;;;;;;14.17;94.99;100589.95;1456136;89;21823;-79
2023/05/26 00:29:49;;;;;;;32.03;22.50;;;;;;;14.15;94.53;100585.78;1461510;89;21550;-79
2023/05/26 00:32:16;;;;;;;33.07;23.50;;;;;;;14.17;93.90;100586.46;1439969;89;22358;-79
2023/05/26 00:34:42;;;;;;;31.80;23.03;;;;;;;14.16;93.95;100586.97;1459772;89;21662;-79
2023/05/26 00:37:09;;;;;;;29.13;21.17;;;;;;;14.17;94.64;100589.13;1460646;89;21375;-79
2023/05/26 00:39:35;;;;;;;30.67;19.80;;;;;;;14.14;95.55;100586.80;1458981;89;23116;-78
2023/05/26 00:42:02;;;;;;;32.77;22.33;;;;;;;14.16;95.33;100581.64;1463082;89;21456;-78
2023/05/26 00:44:28;;;;;;;38.57;24.17;;;;;;;14.18;94.80;100581.45;1465889;89;21353;-78
2023/05/26 00:46:55;;;;;;;29.33;22.07;;;;;;;14.20;94.23;100578.97;1463836;89;21345;-77
2023/05/26 00:49:21;;;;;;;35.73;23.33;;;;;;;14.17;96.11;100571.82;1465415;89;22016;-79
2023/05/26 00:51:47;;;;;;;31.50;21.43;;;;;;;14.17;95.79;100573.16;1464595;89;21522;-79
2023/05/26 00:54:14;;;;;;;30.93;21.80;;;;;;;14.14;96.67;100574.81;1442754;89;22460;-79
2023/05/26 00:56:42;;;;;;;35.07;24.43;;;;;;;14.16;96.62;100580.31;1463372;89;21345;-79
2023/05/26 00:59:11;;;;;;;32.37;22.10;;;;;;;14.15;96.99;100581.29;1467403;89;22450;-80
2023/05/26 01:01:38;;;;;;;32.47;23.30;;;;;;;14.15;97.25;100579.95;1465106;89;21523;-78
2023/05/26 01:04:04;;;;;;;31.83;22.63;;;;;;;14.17;97.15;100578.47;1462273;89;21368;-78
2023/05/26 01:06:31;;;;;;;37.17;23.83;;;;;;;14.19;96.86;100581.81;1458868;89;21397;-79
2023/05/26 01:08:58;;;;;;;30.83;22.13;;;;;;;14.21;96.84;100579.79;1459678;89;21565;-79
2023/05/26 01:11:54;;;;;;;33.27;22.73;;;;;;;14.20;97.33;100585.62;1463948;89;22306;-79
2023/05/26 01:14:54;;;;;;;35.20;24.87;;;;;;;14.23;97.12;100586.61;1457219;89;22431;-79
2023/05/26 01:18:00;;;;;;;33.08;24.12;;;;;;;14.26;97.35;100585.95;1461796;89;22312;-79
2023/05/26 01:21:05;;;;;;;35.30;23.33;;;;;;;14.23;97.33;100579.95;1465759;89;21441;-80
2023/05/26 01:23:58;;;;;;;31.83;23.37;;;;;;;14.23;98.39;100581.80;1488986;87;21311;-78
2023/05/26 01:26:54;;;;;;;30.27;20.97;;;;;;;14.22;98.10;100581.47;1495334;86;21584;-78
2023/05/26 01:29:23;;;;;;;30.93;22.53;;;;;;;14.24;98.64;100588.77;1488972;87;22323;-77
2023/05/26 01:31:49;;;;;;;34.33;24.70;;;;;;;14.25;98.09;100581.14;1481814;86;21453;-78
2023/05/26 01:34:16;;;;;;;32.23;22.67;;;;;;;14.23;99.11;100585.28;1449523;88;21460;-78
2023/05/26 01:36:42;;;;;;;38.50;25.00;;;;;;;14.24;99.69;100587.44;1441939;88;21272;-78
2023/05/26 01:39:10;;;;;;;31.60;22.87;;;;;;;14.25;98.83;100578.47;1467722;87;23243;-78
2023/05/26 01:41:45;;;;;;;31.83;22.30;;;;;;;14.25;99.69;100579.80;1481135;87;21340;-77
2023/05/26 01:44:32;;;;;;;35.80;23.37;;;;;;;14.28;99.65;100581.30;1442115;89;21447;-78
2023/05/26 01:46:59;;;;;;;31.77;19.93;;;;;;;14.27;99.73;100577.81;1450467;89;21407;-77
2023/05/26 01:49:31;;;;;;;36.50;23.90;;;;;;;14.23;100.00;100575.97;1437416;90;21378;-78
2023/05/26 01:52:01;;;;;;;33.00;24.33;;;;;;;14.23;100.00;100579.95;1441678;89;21916;-78
2023/05/26 01:54:35;;;;;;;32.40;21.63;;;;;;;14.27;100.00;100581.81;1470561;86;21526;-78
2023/05/26 01:57:03;;;;;;;39.23;25.03;;;;;;;14.29;100.00;100577.13;1466425;88;21366;-78
2023/05/26 01:59:30;;;;;;;32.27;23.23;;;;;;;14.28;100.00;100574.14;1474011;88;21359;-77
2023/05/26 02:01:57;;;;;;;30.50;22.73;;;;;;;14.29;100.00;100572.30;1454899;88;21654;-77
2023/05/26 02:04:23;;;;;;;33.50;24.93;;;;;;;14.31;100.00;100568.48;1455273;88;22592;-78
2023/05/26 02:06:51;;;;;;;32.43;23.03;;;;;;;14.30;100.00;100570.82;1429128;89;21924;-77
2023/05/26 02:09:17;;;;;;;40.27;22.97;;;;;;;14.30;100.00;100572.63;1453493;88;21463;-78
2023/05/26 02:11:43;;;;;;;38.23;25.97;;;;;;;14.27;100.00;100571.16;1457549;88;21264;-77
2023/05/26 02:14:09;;;;;;;36.07;24.23;;;;;;;14.30;100.00;100574.81;1462189;88;21428;-78
2023/05/26 02:16:35;;;;;;;39.53;25.10;;;;;;;14.33;100.00;100573.15;1472640;88;22356;-78
2023/05/26 02:19:02;;;;;;;33.70;22.20;;;;;;;14.32;100.00;100571.46;1475648;88;22364;-77
2023/05/26 02:21:28;;;;;;;29.77;19.97;;;;;;;14.32;100.00;100571.46;1489178;86;21303;-77
2023/05/26 02:23:55;;;;;;;34.40;23.90;;;;;;;14.31;100.00;100574.31;1450361;89;21283;-77
2023/05/26 02:26:21;;;;;;;32.63;22.50;;;;;;;14.32;100.00;100572.80;1493883;86;22534;-78
2023/05/26 02:28:50;;;;;;;35.23;22.67;;;;;;;14.31;100.00;100576.97;1457792;89;21389;-77
2023/05/26 02:31:16;;;;;;;36.30;23.50;;;;;;;14.33;100.00;100577.14;1456288;88;21500;-77
2023/05/26 02:33:42;;;;;;;35.30;23.20;;;;;;;14.35;100.00;100577.78;1478126;86;21385;-78
2023/05/26 02:36:09;;;;;;;38.30;24.30;;;;;;;14.32;100.00;100574.12;1467783;88;22461;-77
2023/05/26 02:38:35;;;;;;;30.30;22.47;;;;;;;14.36;100.00;100580.80;1460198;88;21345;-79
2023/05/26 02:41:01;;;;;;;39.73;25.30;;;;;;;14.39;100.00;100584.95;1458737;89;21346;-79
2023/05/26 02:43:27;;;;;;;40.60;25.57;;;;;;;14.40;100.00;100586.10;1496782;86;22249;-79
2023/05/26 02:45:53;;;;;;;34.70;25.97;;;;;;;14.40;100.00;100579.45;1452083;88;21478;-79
2023/05/26 02:48:19;;;;;;;33.37;24.10;;;;;;;14.41;100.00;100577.61;1493451;86;21421;-79
2023/05/26 02:50:46;;;;;;;34.17;25.23;;;;;;;14.39;100.00;100584.45;1445753;89;21582;-78
2023/05/26 02:53:12;;;;;;;33.93;25.33;;;;;;;14.39;100.00;100585.78;1472826;87;22346;-79
2023/05/26 02:55:38;;;;;;;33.20;23.57;;;;;;;14.42;100.00;100579.30;1491322;87;21325;-79
2023/05/26 02:58:05;;;;;;;37.73;23.20;;;;;;;14.39;100.00;100583.12;1472822;87;21466;-79
2023/05/26 03:00:31;;;;;;;31.00;22.67;;;;;;;14.43;100.00;100580.94;1479360;87;21348;-78
2023/05/26 03:02:57;;;;;;;36.20;23.93;;;;;;;14.44;100.00;100580.79;1469691;87;21407;-80
2023/05/26 03:05:23;;;;;;;34.03;24.73;;;;;;;14.50;100.00;100583.75;1475937;87;21437;-79
2023/05/26 03:07:49;;;;;;;39.30;25.73;;;;;;;14.50;100.00;100585.08;1475282;88;22276;-79
2023/05/26 03:10:16;;;;;;;32.37;24.57;;;;;;;14.49;100.00;100590.09;1467444;87;21510;-79
2023/05/26 03:12:42;;;;;;;34.87;22.90;;;;;;;14.48;100.00;100584.44;1471356;88;22353;-78
2023/05/26 03:15:11;;;;;;;38.17;25.50;;;;;;;14.49;100.00;100583.43;1479225;87;21830;-78
2023/05/26 03:17:37;;;;;;;36.73;25.00;;;;;;;14.51;100.00;100582.77;1471165;86;21715;-79
2023/05/26 03:20:05;;;;;;;31.40;22.20;;;;;;;14.52;100.00;100576.46;1442650;89;21413;-80
2023/05/26 03:22:31;;;;;;;31.47;23.67;;;;;;;14.55;100.00;100577.45;1483790;86;21518;-80
2023/05/26 03:24:58;;;;;;;39.10;24.20;;;;;;;14.55;100.00;100581.45;1488616;87;22257;-80
2023/05/26 03:27:24;;;;;;;34.00;24.37;;;;;;;14.59;100.00;100580.13;1478418;88;21337;-79
2023/05/26 03:29:50;;;;;;;36.37;23.60;;;;;;;14.60;100.00;100577.28;1454160;88;21308;-78
2023/05/26 03:32:16;;;;;;;34.63;23.93;;;;;;;14.63;100.00;100577.44;1476223;87;22354;-79
2023/05/26 03:34:44;;;;;;;34.93;25.40;;;;;;;14.66;100.00;100583.76;1473644;88;22266;-78
2023/05/26 03:37:15;;;;;;;35.30;24.93;;;;;;;14.70;100.00;100579.73;1470421;87;21252;-79
2023/05/26 03:39:41;;;;;;;34.67;25.10;;;;;;;14.72;100.00;100576.41;1471480;87;22132;-78
2023/05/26 03:42:08;;;;;;;35.83;23.93;;;;;;;14.71;100.00;100581.42;1452445;88;21445;-78
2023/05/26 03:44:35;;;;;;;37.50;25.17;;;;;;;14.74;100.00;100581.58;1479047;88;21345;-80
2023/05/26 03:47:01;;;;;;;32.20;22.80;;;;;;;14.77;100.00;100582.06;1471730;88;21338;-80
2023/05/26 03:49:27;;;;;;;40.13;24.60;;;;;;;14.79;100.00;100575.25;1467603;89;21344;-80
2023/05/26 03:51:53;;;;;;;38.30;25.87;;;;;;;14.87;100.00;100578.72;1474837;88;21425;-80
2023/05/26 03:54:20;;;;;;;35.23;24.23;;;;;;;14.93;100.00;100576.34;1473233;88;21352;-80
2023/05/26 03:56:46;;;;;;;36.67;27.50;;;;;;;14.94;100.00;100580.69;1456804;89;22388;-80
2023/05/26 03:59:12;;;;;;;34.63;25.07;;;;;;;14.98;100.00;100585.98;1463639;88;21429;-80
2023/05/26 04:01:38;;;;;;;34.13;26.20;;;;;;;14.99;100.00;100580.50;1440401;88;21391;-81
2023/05/26 04:04:04;;;;;;;34.77;25.10;;;;;;;15.04;100.00;100582.13;1462662;88;21473;-81
2023/05/26 04:06:30;;;;;;;35.43;25.27;;;;;;;15.11;100.00;100578.28;1458178;88;22346;-80
2023/05/26 04:08:59;;;;;;;32.77;25.40;;;;;;;15.14;100.00;100581.11;1448729;88;21406;-80
2023/05/26 04:11:25;;;;;;;39.80;24.67;;;;;;;15.15;100.00;100584.09;1444930;89;21522;-81
2023/05/26 04:13:51;;;;;;;33.93;23.10;;;;;;;15.20;100.00;100594.56;1457184;88;21373;-80
2023/05/26 04:16:17;;;;;;;31.33;22.97;;;;;;;15.19;100.00;100586.25;1484389;88;21367;-80
2023/05/26 04:18:43;;;;;;;36.50;26.97;;;;;;;15.27;100.00;100588.03;1463521;88;22233;-81
2023/05/26 04:21:10;;;;;;;30.43;21.97;;;;;;;15.32;99.98;100592.34;1465032;88;22416;-80
2023/05/26 04:23:36;;;;;;;32.20;22.63;;;;;;;15.37;99.47;100601.16;1461375;88;21434;-80
2023/05/26 04:26:03;;;;;;;34.27;25.50;;;;;;;15.45;99.33;100585.09;1444586;88;21346;-81
2023/05/26 04:28:30;;;;;;;34.50;26.07;;;;;;;15.51;98.72;100593.75;1503244;86;21318;-80
2023/05/26 04:30:56;;;;;;;40.20;25.90;;;;;;;15.60;98.49;100591.36;1494309;86;21348;-80
2023/05/26 04:33:22;;;;;;;47.47;24.90;;;;;;;15.69;98.23;100591.66;1470019;87;22519;-81
2023/05/26 04:35:49;;;;;;;31.83;21.73;;;;;;;15.76;97.51;100587.26;1455950;89;21408;-79
2023/05/26 04:38:15;;;;;;;43.50;23.17;;;;;;;15.80;96.84;100594.42;1458771;88;21463;-79
2023/05/26 04:40:45;;;;;;;30.00;23.03;;;;;;;15.87;96.61;100585.20;1475094;87;22161;-79
2023/05/26 04:43:13;;;;;;;32.27;25.43;;;;;;;15.97;96.10;100591.96;1473911;87;21421;-79
2023/05/26 04:45:43;;;;;;;33.47;23.37;;;;;;;16.10;95.95;100595.86;1456599;88;21308;-79
2023/05/26 04:48:08;;;;;;;31.90;22.73;;;;;;;16.18;95.42;100587.78;1470367;88;21411;-79
2023/05/26 04:50:38;;;;;;;41.70;23.20;;;;;;;16.23;94.60;100584.91;1461397;88;21344;-79
2023/05/26 04:53:06;;;;;;;26.00;21.20;;;;;;;16.29;93.62;100586.53;1474165;88;21559;-78
2023/05/26 04:55:35;;;;;;;32.97;23.10;;;;;;;16.37;93.53;100591.77;1472526;88;21352;-78
2023/05/26 04:58:01;;;;;;;31.83;20.83;;;;;;;16.44;93.19;100592.72;1464524;88;21351;-78
2023/05/26 05:00:31;;;;;;;31.57;23.20;;;;;;;16.53;92.99;100599.64;1457208;88;22405;-79
2023/05/26 05:02:56;;;;;;;37.80;23.73;;;;;;;16.62;92.26;100606.55;1457472;89;21389;-78
2023/05/26 05:05:22;;;;;;;29.83;23.23;;;;;;;16.70;91.50;100606.47;1455035;89;21331;-79
2023/05/26 05:07:50;;;;;;;35.57;23.17;;;;;;;16.74;91.46;100602.09;1486890;86;21413;-79
2023/05/26 05:10:17;;;;;;;32.47;24.00;;;;;;;16.80;90.81;100601.39;1434140;89;21431;-79
2023/05/26 05:12:44;;;;;;;29.97;22.13;;;;;;;16.90;91.08;100604.62;1461301;88;21389;-78
2023/05/26 05:15:10;;;;;;;31.73;21.97;;;;;;;16.99;90.77;100602.18;1475692;88;21385;-78
2023/05/26 05:17:37;;;;;;;26.17;19.47;;;;;;;17.11;90.39;100606.03;1469793;88;21561;-77
2023/05/26 05:20:04;;;;;;;30.67;23.83;;;;;;;17.20;88.67;100612.63;1461018;88;21362;-77
2023/05/26 05:22:31;;;;;;;30.03;20.50;;;;;;;17.23;88.67;100609.06;1459575;88;21333;-78
2023/05/26 05:24:57;;;;;;;33.37;22.33;;;;;;;17.32;88.56;100616.47;1465107;88;21323;-77
2023/05/26 05:27:23;;;;;;;38.73;20.53;;;;;;;17.36;88.08;100614.58;1444887;88;22329;-79
2023/05/26 05:29:49;;;;;;;26.30;19.43;;;;;;;17.43;87.25;100617.33;1452828;89;21382;-78
2023/05/26 05:32:16;;;;;;;25.63;18.97;;;;;;;17.50;86.57;100611.56;1497666;86;21369;-79
2023/05/26 05:34:42;;;;;;;26.97;20.53;;;;;;;17.61;85.99;100608.91;1461984;88;22269;-79
2023/05/26 05:37:08;;;;;;;28.50;20.13;;;;;;;17.65;85.81;100609.36;1497009;86;21325;-76
2023/05/26 05:39:34;;;;;;;22.83;19.80;;;;;;;17.73;86.04;100618.61;1462839;87;21359;-76
2023/05/26 05:42:01;;;;;;;22.43;18.03;;;;;;;17.81;85.49;100618.02;1482248;88;22431;-76
2023/05/26 05:44:27;;;;;;;21.83;17.93;;;;;;;17.85;84.73;100614.44;1451175;89;21330;-78
2023/05/26 05:46:53;;;;;;;26.57;19.30;;;;;;;18.01;85.08;100616.87;1475525;88;21442;-79
2023/05/26 05:49:19;;;;;;;24.73;18.80;;;;;;;18.16;84.67;100614.63;1461989;89;22335;-77
2023/05/26 05:51:45;;;;;;;24.67;19.37;;;;;;;18.33;84.20;100629.41;1477138;87;21536;-78
2023/05/26 05:54:12;;;;;;;35.73;19.67;;;;;;;18.46;83.56;100621.98;1476534;87;21377;-79
2023/05/26 05:56:38;;;;;;;24.32;19.20;;;;;;;18.58;83.00;100618.25;1486585;87;21459;-78
2023/05/26 05:59:04;;;;;;;23.30;18.07;;;;;;;18.67;82.12;100625.11;1494013;86;22264;-79
2023/05/26 06:01:30;;;;;;;18.73;16.60;;;;;;;18.71;81.52;100630.41;1492693;86;21288;-78
2023/05/26 06:03:56;;;;;;;31.97;17.55;;;;;;;18.71;80.86;100625.05;1476841;87;21434;-78
2023/05/26 06:06:22;;;;;;;21.33;17.87;;;;;;;18.84;81.43;100615.77;1456033;89;22232;-79
2023/05/26 06:08:48;;;;;;;21.93;18.17;;;;;;;18.93;79.76;100625.33;1488500;86;21385;-80
2023/05/26 06:11:14;;;;;;;27.67;18.23;;;;;;;19.05;80.44;100626.94;1480124;87;21362;-76
2023/05/26 06:13:41;;;;;;;20.88;16.75;;;;;;;19.14;79.93;100625.74;1496425;87;22302;-78
2023/05/26 06:16:07;;;;;;;22.98;17.27;;;;;;;19.26;79.38;100630.03;1471990;88;21353;-78
2023/05/26 06:18:33;;;;;;;21.70;17.40;;;;;;;19.29;78.12;100631.48;1454605;89;21471;-77
2023/05/26 06:20:59;;;;;;;52.60;18.40;;;;;;;19.36;77.16;100633.18;1478823;88;22247;-78
2023/05/26 06:23:26;;;;;;;26.33;18.57;;;;;;;19.39;78.17;100634.13;1452804;89;22292;-78
2023/05/26 06:25:52;;;;;;;20.62;16.37;;;;;;;19.47;78.21;100634.96;1475659;88;21463;-78
2023/05/26 06:28:19;;;;;;;20.08;16.48;;;;;;;19.65;78.86;100635.28;1451120;89;22407;-78
2023/05/26 06:30:45;;;;;;;21.12;16.17;;;;;;;19.80;77.29;100634.59;1456504;88;21442;-78
2023/05/26 06:33:11;;;;;;;18.32;15.60;;;;;;;19.92;76.70;100632.65;1441571;89;21435;-78
2023/05/26 06:35:37;;;;;;;18.90;14.40;;;;;;;20.04;76.58;100642.58;1479089;88;22871;-78
2023/05/26 06:38:04;;;;;;;25.02;16.85;;;;;;;20.16;74.19;100637.94;1483638;87;21903;-78
2023/05/26 06:40:32;;;;;;;21.45;16.93;;;;;;;20.34;75.59;100641.35;1481140;86;21855;-76
2023/05/26 06:42:58;;;;;;;25.00;16.40;;;;;;;20.35;74.28;100641.69;1484612;87;21527;-76
2023/05/26 06:45:24;;;;;;;19.77;15.63;;;;;;;20.29;72.74;100642.81;1466246;86;22244;-76
2023/05/26 06:47:50;;;;;;;19.73;15.83;;;;;;;20.20;73.00;100640.55;1466407;88;21399;-76
2023/05/26 06:50:16;;;;;;;22.02;17.48;;;;;;;20.19;72.94;100640.21;1470313;88;21525;-76
2023/05/26 06:52:42;;;;;;;21.15;15.83;;;;;;;20.32;73.96;100638.06;1456768;86;21367;-76
2023/05/26 06:55:09;;;;;;;24.75;17.95;;;;;;;20.41;73.79;100639.51;1475238;88;21397;-76
2023/05/26 06:57:35;;;;;;;18.40;16.17;;;;;;;20.60;74.51;100634.67;1504975;86;21566;-77
2023/05/26 07:00:02;;;;;;;23.30;16.97;;;;;;;20.77;73.78;100632.88;1464275;87;21428;-76
2023/05/26 07:02:28;;;;;;;20.95;15.40;;;;;;;20.81;72.58;100633.61;1450591;89;22301;-76
2023/05/26 07:04:54;;;;;;;22.77;16.52;;;;;;;20.80;71.16;100633.80;1455034;89;21385;-76
2023/05/26 07:07:20;;;;;;;20.85;15.58;;;;;;;20.81;71.33;100635.47;1450404;89;21384;-76
2023/05/26 07:09:47;;;;;;;26.60;16.15;;;;;;;21.02;72.22;100628.48;1453807;90;22300;-76
2023/05/26 07:12:13;;;;;;;27.05;16.50;;;;;;;21.02;72.22;100624.31;1447925;90;21532;-76
2023/05/26 07:14:39;;;;;;;20.77;16.10;;;;;;;21.13;70.69;100624.31;1449534;90;22810;-76
2023/05/26 07:17:05;;;;;;;19.92;14.78;;;;;;;21.12;70.21;100633.44;1448062;89;21862;-76
2023/05/26 07:19:31;;;;;;;18.45;14.87;;;;;;;21.19;70.63;100633.70;1450579;89;21392;-75
2023/05/26 07:21:59;;;;;;;16.50;14.53;;;;;;;21.23;69.42;100634.62;1450293;90;22300;-76
2023/05/26 07:24:25;;;;;;;21.30;14.65;;;;;;;21.35;70.04;100636.98;1448886;89;21656;-76
2023/05/26 07:26:51;;;;;;;17.05;13.50;;;;;;;21.53;70.97;100632.27;1435231;90;21473;-76
2023/05/26 07:29:20;;;;;;;25.90;14.03;;;;;;;21.75;68.71;100644.37;1430610;90;21310;-75
2023/05/26 07:31:48;;;;;;;22.98;14.30;;;;;;;21.83;67.87;100640.58;1439660;89;21435;-76
2023/05/26 07:34:14;;;;;;;17.10;13.15;;;;;;;21.96;68.08;100643.73;1440620;89;21443;-76
2023/05/26 07:36:40;;;;;;;25.10;16.37;;;;;;;22.06;67.04;100650.27;1452741;89;21553;-76
2023/05/26 07:39:08;;;;;;;21.48;13.78;;;;;;;22.09;66.92;100638.23;1450553;89;21391;-76
2023/05/26 07:41:37;;;;;;;17.55;13.20;;;;;;;22.18;66.42;100640.16;1444183;89;21451;-76
2023/05/26 07:44:03;;;;;;;15.98;12.95;;;;;;;22.11;65.99;100640.72;1449579;90;21378;-76
2023/05/26 07:46:29;;;;;;;21.05;13.72;;;;;;;22.24;67.07;100641.98;1451795;89;21347;-76
2023/05/26 07:48:55;;;;;;;13.90;11.00;;;;;;;22.33;66.49;100638.00;1450097;89;22368;-76
2023/05/26 07:51:22;;;;;;;21.77;13.98;;;;;;;22.36;64.19;100637.55;1446373;90;21620;-76
2023/05/26 07:53:48;;;;;;;20.23;15.05;;;;;;;22.55;66.42;100641.63;1453094;89;21385;-76
2023/05/26 07:56:14;;;;;;;23.10;15.48;;;;;;;22.70;66.41;100637.56;1445771;89;21499;-75
2023/05/26 07:58:40;;;;;;;19.62;13.05;;;;;;;22.85;65.79;100637.20;1444394;90;21466;-77
2023/05/26 08:01:07;;;;;;;20.48;13.32;;;;;;;22.95;64.69;100633.47;1444226;89;21369;-76
2023/05/26 08:03:34;;;;;;;16.82;13.58;;;;;;;23.16;65.37;100636.77;1445519;89;21905;-76
2023/05/26 08:06:01;;;;;;;19.87;12.40;;;;;;;23.30;63.47;100639.61;1383769;89;22236;-83
2023/05/26 08:08:27;;;;;;;16.93;12.70;;;;;;;23.47;64.67;100639.00;1448951;89;21443;-84
2023/05/26 08:10:53;;;;;;;19.48;12.58;;;;;;;23.64;64.06;100638.67;1433462;90;21524;-84
2023/05/26 08:13:19;;;;;;;15.20;13.48;;;;;;;23.60;62.02;100640.19;1448586;89;21906;-82
2023/05/26 08:15:46;;;;;;;18.10;11.55;;;;;;;23.63;62.84;100637.03;1448333;90;22331;-79
2023/05/26 08:18:13;;;;;;;17.87;10.93;;;;;;;23.68;61.91;100634.98;1453265;89;21377;-80
2023/05/26 08:20:39;;;;;;;18.00;11.43;;;;;;;23.83;61.60;100638.95;1440822;89;22219;-85
2023/05/26 08:23:13;;;;;;;16.00;10.43;;;;;;;23.89;59.94;100636.39;1438866;90;21421;-84
2023/05/26 08:25:40;;;;;;;17.20;10.25;;;;;;;24.03;59.68;100632.44;1447453;89;21642;-84
2023/05/26 08:28:06;;;;;;;16.97;11.05;;;;;;;24.11;56.76;100634.81;1449838;89;21354;-82
2023/05/26 08:30:34;;;;;;;15.85;10.95;;;;;;;24.07;56.97;100632.26;1447146;89;21406;-86
2023/05/26 08:33:00;;;;;;;12.55;10.18;;;;;;;24.22;58.39;100633.98;1444787;90;21480;-85
2023/05/26 08:35:29;;;;;;;14.00;10.32;;;;;;;24.22;57.29;100636.69;1447387;89;21376;-83
2023/05/26 08:37:57;;;;;;;12.85;9.90;;;;;;;24.31;57.38;100629.91;1527649;89;21333;-82
2023/05/26 08:40:23;;;;;;;14.05;10.43;;;;;;;24.20;55.94;100625.30;1362377;91;21416;-84
2023/05/26 08:42:54;;;;;;;15.85;9.55;;;;;;;24.35;56.11;100629.44;1425002;88;21559;-80
2023/05/26 08:45:20;;;;;;;18.12;10.82;;;;;;;24.48;55.60;100623.28;1472710;88;21410;-81
2023/05/26 08:47:48;;;;;;;12.28;9.48;;;;;;;24.66;56.53;100625.06;1472990;88;21382;-80
2023/05/26 08:50:16;;;;;;;9.33;7.95;;;;;;;24.75;55.88;100626.34;1478792;88;22623;-80
2023/05/26 08:52:43;;;;;;;10.23;8.98;;;;;;;24.71;48.42;100623.80;1472869;88;22439;-82
2023/05/26 08:55:11;;;;;;;11.03;9.58;;;;;;;24.73;50.54;100628.46;1476806;88;21455;-81
2023/05/26 08:57:38;;;;;;;14.63;9.58;;;;;;;24.89;51.42;100630.99;1471974;88;21477;-81
2023/05/26 09:00:07;;;;;;;11.75;9.48;;;;;;;25.09;50.67;100617.06;1480634;88;21545;-81
2023/05/26 09:02:34;;;;;;;15.83;8.75;;;;;;;25.25;51.79;100622.82;1561119;88;22166;-81
2023/05/26 09:05:02;;;;;;;15.15;9.48;;;;;;;25.31;49.01;100623.21;1559002;88;22297;-81
2023/05/26 09:07:28;;;;;;;15.50;8.83;;;;;;;25.36;49.73;100616.55;1400574;88;21257;-80
2023/05/26 09:09:54;;;;;;;12.07;9.63;;;;;;;25.43;50.17;100616.70;1402021;88;21256;-79
2023/05/26 09:12:22;;;;;;;13.55;8.60;;;;;;;25.54;49.76;100621.77;1398167;88;21478;-82
2023/05/26 09:14:50;;;;;;;10.65;9.53;;;;;;;25.65;49.81;100615.48;1541447;88;21374;-81
2023/05/26 09:17:16;;;;;;;12.47;10.08;;;;;;;25.78;47.37;100618.94;1400084;88;21212;-80
2023/05/26 09:19:42;;;;;;;10.00;8.68;;;;;;;25.96;48.54;100616.06;1556602;88;22202;-80
2023/05/26 09:22:11;;;;;;;11.48;8.75;;;;;;;26.16;48.73;100621.02;1399614;88;21225;-81
2023/05/26 09:24:49;;;;;;;16.60;9.15;;;;;;;26.21;45.48;100614.83;1521779;88;21501;-81
2023/05/26 09:27:20;;;;;;;10.38;7.55;;;;;;;26.31;45.62;100612.29;1551673;88;21397;-80
2023/05/26 09:29:49;;;;;;;10.85;8.03;;;;;;;26.33;42.62;100611.52;1560919;88;21190;-81
2023/05/26 09:32:15;;;;;;;12.40;9.08;;;;;;;26.26;44.57;100614.91;1397297;88;21367;-80
2023/05/26 09:34:42;;;;;;;9.68;8.60;;;;;;;26.40;45.09;100605.38;1387594;89;21316;-80
2023/05/26 09:37:11;;;;;;;7.92;7.10;;;;;;;26.32;43.58;100600.36;1399969;88;22107;-79
2023/05/26 09:39:38;;;;;;;9.80;7.72;;;;;;;26.50;43.63;100596.61;1396922;88;21242;-81
2023/05/26 09:42:07;;;;;;;10.08;6.97;;;;;;;26.70;43.06;100596.90;1421600;88;22312;-81
2023/05/26 09:44:34;;;;;;;11.93;8.65;;;;;;;26.92;41.88;100587.94;1475670;88;21418;-80
2023/05/26 09:47:02;;;;;;;17.98;7.55;;;;;;;26.81;42.18;100595.12;1472855;88;21433;-80
2023/05/26 09:49:30;;;;;;;11.70;8.33;;;;;;;26.66;42.06;100588.14;1471692;88;21854;-81
2023/05/26 09:51:56;;;;;;;15.65;8.50;;;;;;;26.63;41.87;100590.81;1461068;88;21373;-80
2023/05/26 09:54:26;;;;;;;8.90;6.87;;;;;;;26.79;42.33;100594.57;1458751;88;21522;-82
2023/05/26 09:57:05;;;;;;;10.25;7.85;;;;;;;26.92;40.95;100586.03;1475216;88;22119;-79
2023/05/26 09:59:37;;;;;;;10.72;8.18;;;;;;;27.01;41.95;100589.95;1477907;88;21374;-80
2023/05/26 10:02:19;;;;;;;10.30;7.80;;;;;;;27.01;41.28;100585.87;1401549;88;21399;-81
2023/05/26 10:04:47;;;;;;;11.33;8.88;;;;;;;27.15;42.20;100584.99;1403826;88;22181;-81
2023/05/26 10:07:18;;;;;;;10.72;7.75;;;;;;;27.13;40.77;100581.70;1397505;88;21249;-81
2023/05/26 10:10:00;;;;;;;7.15;6.47;;;;;;;27.01;41.28;100583.16;1384252;91;22226;-79
2023/05/26 10:12:32;;;;;;;10.40;6.55;;;;;;;27.12;41.89;100581.94;1396130;88;21264;-80
2023/05/26 10:15:03;;;;;;;7.87;7.03;;;;;;;27.36;41.50;100571.12;1471839;88;21433;-81
2023/05/26 10:17:43;;;;;;;13.08;7.92;;;;;;;27.48;39.11;100573.69;1400420;88;21352;-80
2023/05/26 10:20:12;;;;;;;9.85;7.65;;;;;;;27.53;40.73;100568.82;1399691;88;21226;-81
2023/05/26 10:22:58;;;;;;;9.35;8.13;;;;;;;27.60;40.73;100563.47;1397201;88;21435;-81
2023/05/26 10:26:03;;;;;;;13.78;7.97;;;;;;;27.54;40.87;100570.48;1551759;88;22179;-80
2023/05/26 10:28:53;;;;;;;8.70;7.65;;;;;;;27.41;40.51;100567.07;1555497;88;21242;-82
2023/05/26 10:31:29;;;;;;;;;;;;;;;27.49;41.84;100562.27;1478174;88;21463;-83
2023/05/26 10:33:57;;;;;;;9.33;7.28;;;;;;;27.29;40.18;100569.13;1398871;88;20753;-80
2023/05/26 10:36:26;;;;;;;12.18;7.45;;;;;;;27.43;41.36;100566.28;1398666;88;21308;-80
2023/05/26 10:38:56;;;;;;;12.47;7.87;;;;;;;27.52;41.21;100557.13;1559984;88;21271;-81
2023/05/26 10:41:34;;;;;;;12.28;7.22;;;;;;;27.51;40.33;100562.30;1396280;88;21264;-80
2023/05/26 10:44:02;;;;;;;12.53;8.10;;;;;;;27.41;40.31;100558.92;1560696;88;21184;-80
2023/05/26 10:46:51;;;;;;;10.40;7.80;;;;;;;27.18;40.14;100557.31;1398939;88;22069;-81
2023/05/26 10:49:22;;;;;;;10.58;7.62;;;;;;;27.18;40.96;100551.06;1559246;88;21449;-80
2023/05/26 10:51:55;;;;;;;36.38;9.43;;;;;;;27.14;41.88;100552.09;1430148;88;21647;-80
2023/05/26 10:54:24;;;;;;;12.63;7.55;;;;;;;27.27;42.08;100545.45;1403687;88;21381;-79
2023/05/26 10:56:52;;;;;;;;;;;;;;;27.31;41.80;100537.09;1564673;88;21095;-80
2023/05/26 10:59:33;;;;;;;8.53;6.90;;;;;;;27.15;41.09;100543.40;1399752;88;20402;-80
2023/05/26 11:02:08;;;;;;;13.72;7.60;;;;;;;27.03;40.95;100540.01;1397283;88;22083;-81
2023/05/26 11:04:47;;;;;;;12.10;8.58;;;;;;;27.03;41.06;100538.11;1407000;88;21234;-81
2023/05/26 11:07:26;;;;;;;17.42;7.58;;;;;;;27.17;41.40;100533.14;1399008;88;21220;-80
2023/05/26 11:10:08;;;;;;;9.75;7.53;;;;;;;27.41;41.18;100537.72;1562027;88;21653;-79
2023/05/26 11:12:36;;;;;;;7.75;6.95;;;;;;;27.55;41.51;100531.34;1474430;88;21345;-79
2023/05/26 11:15:32;;;;;;;10.10;7.97;;;;;;;27.56;41.07;100528.89;1396901;88;22144;-80